createdAt,value
2023-04-07T00:00:09.246Z,61.2
2023-04-07T00:02:12.493Z,60.6
2023-04-07T00:04:18.996Z,60.9
2023-04-07T00:06:21.890Z,68.9
2023-04-07T00:15:37.786Z,64.1
2023-04-07T00:17:44.070Z,67.7
2023-04-07T00:19:47.144Z,85
2023-04-07T00:21:50.323Z,76.2
2023-04-07T00:25:56.621Z,79.1
2023-04-07T00:30:02.943Z,68.4
2023-04-07T00:36:15.605Z,78.5
2023-04-07T00:38:18.699Z,63
2023-04-07T00:40:21.860Z,73.3
2023-04-07T00:42:24.998Z,62.5
2023-04-07T00:44:28.136Z,62.2
2023-04-07T00:46:34.530Z,55
2023-04-07T00:48:37.672Z,67.5
2023-04-07T00:56:50.247Z,36
2023-04-07T01:00:59.741Z,46.3
2023-04-07T01:03:03.134Z,33.1
2023-04-07T01:05:06.140Z,35.9
2023-04-07T01:07:30.350Z,33.8
2023-04-07T01:09:33.436Z,24.3
2023-04-07T01:11:36.566Z,32.8
2023-04-07T01:13:42.933Z,20.8
2023-04-07T01:15:46.104Z,24.1
2023-04-07T01:17:49.253Z,22.6
2023-04-07T01:23:58.655Z,20.6
2023-04-07T01:26:01.819Z,14.7
2023-04-07T01:28:08.159Z,15.6
2023-04-07T01:30:11.307Z,23.4
2023-04-07T01:32:14.448Z,13.6
2023-04-07T01:34:17.586Z,25.7
2023-04-07T01:36:20.749Z,18.1
2023-04-07T01:40:27.038Z,14.5
2023-04-07T01:42:33.398Z,15.5
2023-04-07T01:48:42.846Z,16.9
2023-04-07T01:56:58.596Z,20.7
2023-04-07T01:59:01.765Z,28.4
2023-04-07T02:01:04.911Z,35.2
2023-04-07T02:02:08.228Z,15.9
2023-04-07T02:06:14.355Z,20.8
2023-04-07T02:10:23.903Z,12.7
2023-04-07T02:14:30.154Z,18.5
2023-04-07T02:16:34.944Z,18.8
2023-04-07T02:18:38.002Z,6.7
2023-04-07T02:20:41.138Z,21.4
2023-04-07T02:22:44.265Z,14
2023-04-07T02:26:53.792Z,20.4
2023-04-07T02:28:56.923Z,12.1
2023-04-07T02:49:31.569Z,26.4
2023-04-07T02:53:41.046Z,34
2023-04-07T02:55:44.243Z,27.5
2023-04-07T02:57:47.316Z,29.1
2023-04-07T02:58:50.500Z,26.7
2023-04-07T03:02:56.865Z,22.9
2023-04-07T03:04:59.945Z,51.8
2023-04-07T03:07:06.277Z,31.2
2023-04-07T03:11:12.562Z,26.7
2023-04-07T03:13:15.705Z,19.7
2023-04-07T03:17:21.997Z,17.6
2023-04-07T03:21:31.465Z,21.4
2023-04-07T03:27:40.899Z,20.2
2023-04-07T03:37:59.806Z,18.4
2023-04-07T03:40:02.945Z,20.5
2023-04-07T03:42:06.111Z,27.8
2023-04-07T03:44:09.249Z,20.3
2023-04-07T03:46:12.427Z,18.2
2023-04-07T03:48:15.533Z,20.8
2023-04-07T03:50:21.889Z,18.6
2023-04-07T03:52:25.009Z,23
2023-04-07T03:54:28.153Z,21.9
2023-04-07T03:55:31.338Z,20.7
2023-04-07T03:59:37.617Z,22.6
2023-04-07T04:01:40.837Z,21.1
2023-04-07T04:03:47.296Z,22.3
2023-04-07T04:05:50.276Z,19.8
2023-04-07T04:07:53.415Z,20.4
2023-04-07T04:09:56.562Z,14.3
2023-04-07T04:11:59.697Z,25.7
2023-04-07T04:14:02.823Z,27.4
2023-04-07T04:16:05.978Z,23.6
2023-04-07T04:22:18.617Z,24.2
2023-04-07T04:24:21.755Z,32.4
2023-04-07T04:26:24.883Z,24.6
2023-04-07T04:28:28.036Z,29.9
2023-04-07T04:30:31.170Z,46.4
2023-04-07T04:32:37.611Z,35.6
2023-04-07T04:38:46.915Z,22.1
2023-04-07T04:42:53.198Z,24.5
2023-04-07T04:44:56.357Z,28.9
2023-04-07T04:47:02.718Z,19.3
2023-04-07T04:49:05.820Z,31.5
2023-04-07T04:51:08.921Z,23.6
2023-04-07T04:53:38.743Z,17.5
2023-04-07T04:57:45.007Z,26
2023-04-07T05:03:58.263Z,14.1
2023-04-07T05:06:00.774Z,28.8
2023-04-07T05:08:03.911Z,20.1
2023-04-07T05:10:07.056Z,19.7
2023-04-07T05:12:10.220Z,23.6
2023-04-07T05:14:16.550Z,19.4
2023-04-07T05:16:19.754Z,17.2
2023-04-07T05:18:22.820Z,39.9
2023-04-07T05:20:25.984Z,25.7
2023-04-07T05:22:29.132Z,29.1
2023-04-07T05:24:32.278Z,15.9
2023-04-07T05:26:35.415Z,20.5
2023-04-07T05:28:41.752Z,17.6
2023-04-07T05:32:48.057Z,28.3
2023-04-07T05:34:51.174Z,27.5
2023-04-07T05:36:54.315Z,17
2023-04-07T05:38:57.439Z,15.8
2023-04-07T05:41:00.602Z,33.9
2023-04-07T05:43:06.940Z,22
2023-04-07T05:45:10.066Z,24.5
2023-04-07T05:47:13.209Z,24.3
2023-04-07T05:52:22.661Z,34.1
2023-04-07T05:54:25.822Z,23.6
2023-04-07T06:04:44.742Z,18.1
2023-04-07T06:06:47.888Z,38.9
2023-04-07T06:08:51.018Z,21.8
2023-04-07T06:10:57.390Z,40.5
2023-04-07T06:13:00.516Z,60.8
2023-04-07T06:15:03.661Z,14
2023-04-07T06:17:06.887Z,21.8
2023-04-07T06:19:09.957Z,42.9
2023-04-07T06:21:13.104Z,31.7
2023-04-07T06:23:16.222Z,22
2023-04-07T06:27:25.729Z,16.9
2023-04-07T06:29:28.975Z,29.4
2023-04-07T06:33:35.145Z,14.7
2023-04-07T06:39:47.754Z,22.5
2023-04-07T06:41:50.884Z,12.3
2023-04-07T06:43:54.032Z,24.8
2023-04-07T06:44:57.185Z,16.6
2023-04-07T06:47:00.357Z,20.6
2023-04-07T06:49:03.477Z,14.9
2023-04-07T06:51:06.635Z,18
2023-04-07T06:59:22.945Z,23.9
2023-04-07T07:03:29.517Z,9.8
2023-04-07T07:07:38.775Z,5.8
2023-04-07T07:11:45.034Z,6.2
2023-04-07T07:13:48.337Z,6
2023-04-07T07:15:51.406Z,8.8
2023-04-07T07:17:54.591Z,11.9
2023-04-07T07:19:57.641Z,4.9
2023-04-07T07:22:04.062Z,3.1
2023-04-07T07:24:07.176Z,4.9
2023-04-07T07:26:10.311Z,13.1
2023-04-07T07:32:19.764Z,4
2023-04-07T07:36:29.281Z,1.8
2023-04-07T07:38:32.806Z,3.3
2023-04-07T07:40:35.570Z,1.5
2023-04-07T07:43:41.887Z,5.9
2023-04-07T07:45:45.042Z,2
2023-04-07T07:49:54.550Z,2.7
2023-04-07T07:54:00.816Z,5
2023-04-07T08:06:22.906Z,1.3
2023-04-07T08:08:26.032Z,1.7
2023-04-07T08:12:33.919Z,10.2
2023-04-07T08:14:37.003Z,5.3
2023-04-07T08:18:46.773Z,2.4
2023-04-07T08:20:49.697Z,3.2
2023-04-07T08:22:52.806Z,1.8
2023-04-07T08:24:55.919Z,3
2023-04-07T08:29:02.220Z,3.3
2023-04-07T08:33:11.729Z,4.5
2023-04-07T08:35:14.897Z,9.3
2023-04-07T08:37:18.062Z,9.6
2023-04-07T08:39:47.815Z,3.6
2023-04-07T08:41:50.986Z,3.2
2023-04-07T08:43:54.119Z,3.3
2023-04-07T08:46:00.520Z,5.3
2023-04-07T08:50:06.835Z,2.1
2023-04-07T08:52:09.952Z,0.7
2023-04-07T08:56:16.278Z,1.6
2023-04-07T09:14:51.116Z,1.9
2023-04-07T09:16:54.303Z,5.7
2023-04-07T09:18:57.438Z,1.1
2023-04-07T09:23:03.739Z,6.4
2023-04-07T09:25:06.887Z,6.4
2023-04-07T09:27:10.097Z,2.1
2023-04-07T09:33:22.731Z,1.6
2023-04-07T09:40:35.364Z,4.4
2023-04-07T09:44:44.882Z,1.2
2023-04-07T09:46:48.073Z,1.4
2023-04-07T09:48:51.212Z,2
2023-04-07T09:50:54.362Z,1.4
2023-04-07T09:55:00.684Z,1.8
2023-04-07T09:59:10.243Z,11.3
2023-04-07T10:01:13.526Z,0.3
2023-04-07T10:09:25.941Z,2.6
2023-04-07T10:11:32.243Z,0.8
2023-04-07T10:15:38.566Z,1.6
2023-04-07T10:19:44.862Z,16.5
2023-04-07T10:21:48.020Z,3.5
2023-04-07T10:25:57.565Z,3.1
2023-04-07T10:30:03.916Z,4.8
2023-04-07T10:31:07.066Z,14.6
2023-04-07T10:37:16.514Z,4.8
2023-04-07T10:39:22.912Z,6.8
2023-04-07T10:43:29.178Z,6.4
2023-04-07T10:47:35.476Z,4.8
2023-04-07T10:49:38.646Z,5
2023-04-07T10:51:41.771Z,7.9
2023-04-07T10:53:48.187Z,13.2
2023-04-07T10:55:51.292Z,9.8
2023-04-07T10:57:54.448Z,4.5
2023-04-07T10:59:58.721Z,6.9
2023-04-07T11:02:00.767Z,6.8
2023-04-07T11:04:04.005Z,7.4
2023-04-07T11:06:07.042Z,13
2023-04-07T11:08:13.405Z,13.3
2023-04-07T11:12:19.708Z,18.5
2023-04-07T11:14:22.819Z,12.9
2023-04-07T11:16:26.046Z,15.2
2023-04-07T11:18:29.135Z,12
2023-04-07T11:20:32.281Z,4.5
2023-04-07T11:22:38.655Z,11.5
2023-04-07T11:24:42.686Z,11.4
2023-04-07T11:29:52.153Z,5.2
2023-04-07T11:36:04.833Z,5.9
2023-04-07T11:38:07.960Z,11.6
2023-04-07T11:40:11.140Z,3.5
2023-04-07T11:42:14.277Z,11.8
2023-04-07T11:44:17.442Z,22.6
2023-04-07T11:46:20.622Z,6.5
2023-04-07T11:48:23.767Z,6
2023-04-07T11:58:42.750Z,5.7
2023-04-07T12:00:45.901Z,6.5
2023-04-07T12:02:49.156Z,4
2023-04-07T12:04:55.531Z,3.3
2023-04-07T12:06:58.574Z,7
2023-04-07T12:09:01.706Z,4.5
2023-04-07T12:11:04.874Z,7.1
2023-04-07T12:13:08.022Z,8.7
2023-04-07T12:15:11.188Z,4.6
2023-04-07T12:17:14.381Z,8.8
2023-04-07T12:19:21.024Z,3.8
2023-04-07T12:21:23.899Z,5.8
2023-04-07T12:25:56.782Z,12.9
2023-04-07T12:27:59.976Z,6.7
2023-04-07T12:30:03.137Z,7.9
2023-04-07T12:32:09.543Z,6
2023-04-07T12:34:12.656Z,8.5
2023-04-07T12:36:16.503Z,8
2023-04-07T12:38:18.937Z,10.5
2023-04-07T12:40:22.096Z,12.9
2023-04-07T12:42:25.230Z,6.6
2023-04-07T12:44:28.399Z,5.3
2023-04-07T12:46:34.826Z,9
2023-04-07T12:48:37.927Z,8.4
2023-04-07T12:50:41.069Z,10
2023-04-07T12:52:44.252Z,4.9
2023-04-07T12:54:47.374Z,19.3
2023-04-07T12:56:50.557Z,13.3
2023-04-07T12:58:53.714Z,5.9
2023-04-07T13:01:00.136Z,9.3
2023-04-07T13:03:03.532Z,11.8
2023-04-07T13:05:06.407Z,5
2023-04-07T13:07:09.545Z,21.3
2023-04-07T13:09:12.729Z,21.1
2023-04-07T13:11:15.885Z,6.7
2023-04-07T13:13:19.017Z,11.7
2023-04-07T13:15:25.403Z,11.9
2023-04-07T13:17:28.673Z,9
2023-04-07T13:19:31.713Z,10.4
2023-04-07T13:20:34.898Z,9.4
2023-04-07T13:28:50.768Z,3.2
2023-04-07T13:43:16.090Z,15.5
2023-04-07T13:53:31.888Z,9.8
2023-04-07T13:55:35.033Z,4.8
2023-04-07T13:59:44.585Z,8.1
2023-04-07T14:01:47.885Z,5.7
2023-04-07T14:12:08.142Z,13
2023-04-07T14:16:14.541Z,6.6
2023-04-07T14:17:17.646Z,1.8
2023-04-07T14:19:20.827Z,7.1
2023-04-07T14:21:23.993Z,7.6
2023-04-07T14:23:36.777Z,2.6
2023-04-07T14:27:36.367Z,8.8
2023-04-07T14:29:39.424Z,11.4
2023-04-07T14:33:45.663Z,8.9
2023-04-07T14:35:48.890Z,11.9
2023-04-07T14:37:51.899Z,16.6
2023-04-07T14:42:01.256Z,6
2023-04-07T14:44:04.413Z,6
2023-04-07T14:46:07.610Z,5.8
2023-04-07T14:48:10.783Z,6.7
2023-04-07T14:52:17.033Z,5.9
2023-04-07T14:54:23.404Z,8.2
2023-04-07T14:56:26.571Z,4.4
2023-04-07T14:58:29.723Z,7.7
2023-04-07T15:00:32.886Z,4.1
2023-04-07T15:02:36.226Z,7
2023-04-07T15:06:42.362Z,9.6
2023-04-07T15:08:48.737Z,5.1
2023-04-07T15:10:51.896Z,9.6
2023-04-07T15:12:55.025Z,9.4
2023-04-07T15:13:58.195Z,21.1
2023-04-07T15:16:01.387Z,11.9
2023-04-07T15:18:04.557Z,8.9
2023-04-07T15:20:07.685Z,11.4
2023-04-07T15:36:39.311Z,12.3
2023-04-07T15:38:42.479Z,11
2023-04-07T15:40:45.638Z,17.7
2023-04-07T15:42:48.790Z,11.4
2023-04-07T15:44:51.921Z,13.8
2023-04-07T15:46:55.110Z,14.2
2023-04-07T15:48:58.190Z,15
2023-04-07T15:53:07.745Z,17.1
2023-04-07T15:55:10.820Z,17.5
2023-04-07T15:57:13.944Z,19.2
2023-04-07T15:59:17.118Z,19.8
2023-04-07T16:01:20.369Z,18.4
2023-04-07T16:03:23.721Z,13
2023-04-07T16:07:32.905Z,15.6
2023-04-07T16:09:36.042Z,17.2
2023-04-07T16:12:05.796Z,14.8
2023-04-07T16:16:12.114Z,12.4
2023-04-07T16:20:21.596Z,13.9
2023-04-07T16:22:24.738Z,14.8
2023-04-07T16:26:31.025Z,11.9
2023-04-07T16:28:34.156Z,10.5
2023-04-07T16:38:53.123Z,15.3
2023-04-07T16:51:15.172Z,13.9
2023-04-07T16:53:18.961Z,8.2
2023-04-07T16:57:24.597Z,10.2
2023-04-07T16:59:27.758Z,7.1
2023-04-07T17:01:34.179Z,7.5
2023-04-07T17:03:37.472Z,8.6
2023-04-07T17:05:40.371Z,8.7
2023-04-07T17:06:43.564Z,8.8
2023-04-07T17:14:59.412Z,10.7
2023-04-07T17:19:05.660Z,8.3
2023-04-07T17:21:08.812Z,11.3
2023-04-07T17:25:16.232Z,12.9
2023-04-07T17:27:18.230Z,10.4
2023-04-07T17:29:24.564Z,48.5
2023-04-07T17:31:27.760Z,16.6
2023-04-07T17:33:30.881Z,12
2023-04-07T17:35:34.042Z,12.5
2023-04-07T17:37:37.177Z,13.4
2023-04-07T17:41:43.451Z,13.8
2023-04-07T17:43:49.935Z,9.8
2023-04-07T17:45:52.977Z,17.2
2023-04-07T17:47:56.157Z,16.6
2023-04-07T17:49:59.232Z,7
2023-04-07T17:52:02.401Z,12
2023-04-07T17:54:05.533Z,15.6
2023-04-07T17:56:08.669Z,11.8
2023-04-07T17:58:15.052Z,13.9
2023-04-07T18:00:18.156Z,10
2023-04-07T18:02:21.429Z,15.6
2023-04-07T18:03:24.621Z,19.7
2023-04-07T18:05:27.654Z,14.2
2023-04-07T18:07:30.756Z,10.6
2023-04-07T18:09:33.908Z,13
2023-04-07T18:13:43.403Z,14.2
2023-04-07T18:17:49.793Z,15.4
2023-04-07T18:19:52.836Z,9
2023-04-07T18:21:55.978Z,11.1
2023-04-07T18:23:59.129Z,16.8
2023-04-07T18:26:05.471Z,13.1
2023-04-07T18:28:08.611Z,14
2023-04-07T18:30:11.770Z,19.2
2023-04-07T18:36:21.147Z,18.4
2023-04-07T18:38:24.283Z,31.4
2023-04-07T18:44:36.896Z,23.2
2023-04-07T18:46:40.045Z,42.6
2023-04-07T18:48:43.158Z,34.5
2023-04-07T18:50:46.291Z,35.4
2023-04-07T18:54:55.755Z,34.3
2023-04-07T18:59:02.009Z,37
2023-04-07T19:00:05.202Z,52
2023-04-07T19:02:08.454Z,52.3
2023-04-07T19:04:11.588Z,44.3
2023-04-07T19:06:14.594Z,43.4
2023-04-07T19:10:24.048Z,43.6
2023-04-07T19:12:27.200Z,44.9
2023-04-07T19:14:30.268Z,52.5
2023-04-07T19:16:33.465Z,43.7
2023-04-07T19:18:36.534Z,60.2
2023-04-07T19:20:39.645Z,53.8
2023-04-07T19:22:45.991Z,63
2023-04-07T19:26:52.206Z,62.4
2023-04-07T19:28:55.327Z,64.6
2023-04-07T19:30:58.486Z,70.8
2023-04-07T19:33:01.721Z,54.2
2023-04-07T19:35:04.724Z,64.3
2023-04-07T19:37:11.084Z,65.7
2023-04-07T19:39:14.207Z,52.7
2023-04-07T19:41:17.335Z,55.7
2023-04-07T19:43:20.678Z,50.3
2023-04-07T19:45:23.620Z,65.1
2023-04-07T19:47:26.750Z,66.6
2023-04-07T19:51:36.199Z,62.5
2023-04-07T20:00:15.362Z,75.8
2023-04-07T20:04:26.337Z,80.9
2023-04-07T20:06:29.478Z,64.2
2023-04-07T20:08:32.596Z,70.6
2023-04-07T20:12:38.855Z,50
2023-04-07T20:14:41.988Z,68.8
2023-04-07T20:16:45.197Z,68.7
2023-04-07T20:18:51.425Z,64
2023-04-07T20:25:00.801Z,62.5
2023-04-07T20:31:10.227Z,67
2023-04-07T20:33:16.520Z,62
2023-04-07T20:35:19.665Z,61.5
2023-04-07T20:37:22.780Z,48.6
2023-04-07T20:41:29.018Z,45.7
2023-04-07T20:54:54.099Z,57.7
2023-04-07T20:56:57.217Z,46.2
2023-04-07T21:05:12.892Z,52.5
2023-04-07T21:11:22.182Z,52.4
2023-04-07T21:19:37.856Z,53.7
2023-04-07T21:23:44.035Z,77.1
2023-04-07T21:25:47.161Z,76.7
2023-04-07T21:29:56.583Z,58.4
2023-04-07T21:44:21.477Z,55
2023-04-07T21:46:24.621Z,58.3
2023-04-07T21:48:27.718Z,66.4
2023-04-07T21:49:30.847Z,58.7
2023-04-07T21:51:33.953Z,57.4
2023-04-07T21:53:37.058Z,56.9
2023-04-07T21:55:40.124Z,64.1
2023-04-07T21:57:46.484Z,62.4
2023-04-07T21:59:49.490Z,56.7
2023-04-07T22:03:55.747Z,46.4
2023-04-07T22:05:58.763Z,52.9
2023-04-07T22:08:01.926Z,53.2
2023-04-07T22:10:04.975Z,66.5
2023-04-07T22:14:14.344Z,55.4
2023-04-07T22:16:17.542Z,50.7
2023-04-07T22:18:22.050Z,56.4
2023-04-07T22:22:26.726Z,64.5
2023-04-07T22:26:36.109Z,52.8
2023-04-07T22:28:39.176Z,59.4
2023-04-07T22:30:42.288Z,45.9
2023-04-07T22:34:48.466Z,51.5
2023-04-07T22:38:54.680Z,61.5
2023-04-07T22:43:04.012Z,71.3
2023-04-07T22:45:07.199Z,51.2
2023-04-07T22:48:13.324Z,53.1
2023-04-07T22:50:16.431Z,51.6
2023-04-07T22:52:19.512Z,58
2023-04-07T22:54:25.810Z,65.8
2023-04-07T22:56:28.902Z,64.3
2023-04-07T22:58:32.000Z,62.7
2023-04-07T23:00:35.099Z,58.7
2023-04-07T23:02:38.295Z,60.4
2023-04-07T23:04:41.243Z,61.8
2023-04-07T23:06:44.304Z,69.5
2023-04-07T23:08:50.697Z,59
2023-04-07T23:10:53.698Z,57
2023-04-07T23:12:56.754Z,53.3
2023-04-07T23:14:59.856Z,51.4
2023-04-07T23:17:02.940Z,68.4
2023-04-07T23:19:05.990Z,65.9
2023-04-07T23:21:09.098Z,84.5
2023-04-07T23:27:21.510Z,68
2023-04-07T23:29:24.942Z,69.4
2023-04-07T23:31:27.746Z,78.7
2023-04-07T23:33:30.742Z,79.1
2023-04-07T23:35:33.846Z,74.4
2023-04-07T23:44:16.134Z,71.6
2023-04-07T23:46:19.285Z,65.1
2023-04-07T23:48:22.321Z,78.9
2023-04-07T23:52:31.656Z,70.3
2023-04-07T23:54:34.755Z,87.2
2023-04-07T23:56:37.819Z,84.2
2023-04-07T23:58:40.892Z,90.7
